createdAt,value
2023-04-19T00:02:18.569Z,0.60
2023-04-19T00:04:47.819Z,0.93
2023-04-19T00:07:15.132Z,0.65
2023-04-19T00:09:42.280Z,0.60
2023-04-19T00:12:09.411Z,0.52
2023-04-19T00:14:36.495Z,0.40
2023-04-19T00:17:03.933Z,0.70
2023-04-19T00:19:31.209Z,0.60
2023-04-19T00:21:58.346Z,0.73
2023-04-19T00:24:25.882Z,0.60
2023-04-19T00:26:53.015Z,0.50
2023-04-19T00:29:20.226Z,0.50
2023-04-19T00:31:47.353Z,0.60
2023-04-19T00:34:14.919Z,0.52
2023-04-19T00:36:42.252Z,0.73
2023-04-19T00:39:09.366Z,0.45
2023-04-19T00:41:36.446Z,0.80
2023-04-19T00:44:03.537Z,0.47
2023-04-19T00:46:30.913Z,0.50
2023-04-19T00:48:58.306Z,0.80
2023-04-19T00:51:27.168Z,0.60
2023-04-19T00:53:54.649Z,0.68
2023-04-19T00:56:24.251Z,0.60
2023-04-19T00:58:51.783Z,0.63
2023-04-19T01:01:19.627Z,0.40
2023-04-19T01:03:47.730Z,0.68
2023-04-19T01:06:16.415Z,0.65
2023-04-19T01:08:43.672Z,0.30
2023-04-19T01:11:11.036Z,0.75
2023-04-19T01:13:38.523Z,0.60
2023-04-19T01:16:07.145Z,0.47
2023-04-19T01:18:37.716Z,0.50
2023-04-19T01:21:05.111Z,0.50
2023-04-19T01:23:32.263Z,0.60
2023-04-19T01:26:01.363Z,0.40
2023-04-19T01:28:28.813Z,0.50
2023-04-19T01:30:56.090Z,0.40
2023-04-19T01:33:23.776Z,0.73
2023-04-19T01:35:51.055Z,0.40
2023-04-19T01:38:18.394Z,0.60
2023-04-19T01:40:45.810Z,0.73
2023-04-19T01:43:15.030Z,0.60
2023-04-19T01:45:42.131Z,0.50
2023-04-19T01:48:09.405Z,0.50
2023-04-19T01:50:36.549Z,0.50
2023-04-19T01:53:03.792Z,0.50
2023-04-19T01:55:30.969Z,0.60
2023-04-19T01:57:58.087Z,0.40
2023-04-19T02:00:25.415Z,0.40
2023-04-19T02:02:52.663Z,0.40
2023-04-19T02:05:20.045Z,0.50
2023-04-19T02:07:47.233Z,0.50
2023-04-19T02:10:14.418Z,0.60
2023-04-19T02:12:43.033Z,0.60
2023-04-19T02:15:10.584Z,0.50
2023-04-19T02:17:39.015Z,0.45
2023-04-19T02:20:08.268Z,0.50
2023-04-19T02:22:35.523Z,0.50
2023-04-19T02:25:02.599Z,0.43
2023-04-19T02:27:29.787Z,0.93
2023-04-19T02:29:57.004Z,0.45
2023-04-19T02:32:24.166Z,0.35
2023-04-19T02:34:51.300Z,0.55
2023-04-19T02:37:18.655Z,0.30
2023-04-19T02:39:46.246Z,0.70
2023-04-19T02:42:13.595Z,0.55
2023-04-19T02:44:40.766Z,0.40
2023-04-19T02:47:08.300Z,0.50
2023-04-19T02:49:37.228Z,0.60
2023-04-19T02:52:04.612Z,0.60
2023-04-19T02:54:33.353Z,0.60
2023-04-19T02:57:01.187Z,0.50
2023-04-19T02:59:28.277Z,0.38
2023-04-19T03:01:55.503Z,0.55
2023-04-19T03:04:22.882Z,0.30
2023-04-19T03:06:49.998Z,0.50
2023-04-19T03:09:17.206Z,0.30
2023-04-19T03:11:44.285Z,0.47
2023-04-19T03:14:11.486Z,0.70
2023-04-19T03:16:39.431Z,0.40
2023-04-19T03:19:06.589Z,0.40
2023-04-19T03:21:33.767Z,0.80
2023-04-19T03:24:01.780Z,0.30
2023-04-19T03:26:28.909Z,0.38
2023-04-19T03:28:56.055Z,0.50
2023-04-19T03:31:23.187Z,0.40
2023-04-19T03:33:50.997Z,0.32
2023-04-19T03:36:18.158Z,0.52
2023-04-19T03:38:45.419Z,0.30
2023-04-19T03:41:26.920Z,0.40
2023-04-19T03:43:53.998Z,0.40
2023-04-19T03:46:21.585Z,0.52
2023-04-19T03:48:48.813Z,0.50
2023-04-19T03:51:16.958Z,0.38
2023-04-19T03:53:44.195Z,0.40
2023-04-19T03:56:11.340Z,0.70
2023-04-19T03:58:38.757Z,0.40
2023-04-19T04:01:08.574Z,0.60
2023-04-19T04:03:36.068Z,0.40
2023-04-19T04:06:03.618Z,0.40
2023-04-19T04:08:30.820Z,0.50
2023-04-19T04:10:57.965Z,0.60
2023-04-19T04:13:25.043Z,0.50
2023-04-19T04:15:52.202Z,0.43
2023-04-19T04:18:19.340Z,0.50
2023-04-19T04:20:46.469Z,0.70
2023-04-19T04:23:14.543Z,0.50
2023-04-19T04:25:43.169Z,0.75
2023-04-19T04:28:10.341Z,0.40
2023-04-19T04:30:37.777Z,0.40
2023-04-19T04:33:04.955Z,0.50
2023-04-19T04:35:32.744Z,0.70
2023-04-19T04:38:00.208Z,1.00
2023-04-19T04:40:28.033Z,1.00
2023-04-19T04:42:55.164Z,1.10
2023-04-19T04:45:22.620Z,1.40
2023-04-19T04:47:49.930Z,1.00
2023-04-19T04:50:17.162Z,0.90
2023-04-19T04:52:44.412Z,1.58
2023-04-19T04:55:11.591Z,1.17
2023-04-19T04:57:38.736Z,1.20
2023-04-19T05:00:07.096Z,1.20
2023-04-19T05:02:34.376Z,1.42
2023-04-19T05:05:01.563Z,1.00
2023-04-19T05:07:28.736Z,1.17
2023-04-19T05:09:55.937Z,1.63
2023-04-19T05:12:23.072Z,1.60
2023-04-19T05:14:50.246Z,1.15
2023-04-19T05:17:17.544Z,2.08
2023-04-19T05:19:44.825Z,1.65
2023-04-19T05:22:12.087Z,1.67
2023-04-19T05:24:41.160Z,1.42
2023-04-19T05:27:09.857Z,1.55
2023-04-19T05:29:37.660Z,1.88
2023-04-19T05:32:04.908Z,2.17
2023-04-19T05:34:32.033Z,3.35
2023-04-19T05:36:59.226Z,3.95
2023-04-19T05:39:26.602Z,4.28
2023-04-19T05:41:54.094Z,3.00
2023-04-19T05:44:21.325Z,3.22
2023-04-19T05:46:48.453Z,2.65
2023-04-19T05:49:15.609Z,2.25
2023-04-19T05:51:42.761Z,2.35
2023-04-19T05:54:12.861Z,2.15
2023-04-19T05:56:40.144Z,2.08
2023-04-19T05:59:08.499Z,2.00
2023-04-19T06:01:35.747Z,2.15
2023-04-19T06:04:03.186Z,2.58
2023-04-19T06:06:30.421Z,2.50
2023-04-19T06:08:57.597Z,2.72
2023-04-19T06:11:31.755Z,2.42
2023-04-19T06:14:06.392Z,2.25
2023-04-19T06:16:33.575Z,2.67
2023-04-19T06:19:01.089Z,2.67
2023-04-19T06:21:32.349Z,2.83
2023-04-19T06:23:59.616Z,2.63
2023-04-19T06:26:27.117Z,2.55
2023-04-19T06:28:54.277Z,2.60
2023-04-19T06:31:21.802Z,2.30
2023-04-19T06:33:49.268Z,2.38
2023-04-19T06:36:17.454Z,2.60
2023-04-19T06:38:46.620Z,2.22
2023-04-19T06:41:13.851Z,2.75
2023-04-19T06:43:42.891Z,2.72
2023-04-19T06:46:10.186Z,2.20
2023-04-19T06:48:38.287Z,2.53
2023-04-19T06:51:05.812Z,2.90
2023-04-19T06:53:33.014Z,2.47
2023-04-19T06:56:02.116Z,2.65
2023-04-19T06:58:30.534Z,2.80
2023-04-19T07:00:58.535Z,2.83
2023-04-19T07:03:26.403Z,2.80
2023-04-19T07:05:56.608Z,2.70
2023-04-19T07:08:32.160Z,2.85
2023-04-19T07:11:06.352Z,2.78
2023-04-19T07:13:33.492Z,3.47
2023-04-19T07:16:03.941Z,2.80
2023-04-19T07:18:31.870Z,2.88
2023-04-19T07:20:59.109Z,2.90
2023-04-19T07:23:26.191Z,2.92
2023-04-19T07:25:53.345Z,3.55
2023-04-19T07:28:20.542Z,3.80
2023-04-19T07:30:48.348Z,4.22
2023-04-19T07:33:16.065Z,4.82
2023-04-19T07:35:43.382Z,5.15
2023-04-19T07:38:10.476Z,5.10
2023-04-19T07:40:37.791Z,4.75
2023-04-19T07:43:05.574Z,3.75
2023-04-19T07:45:33.580Z,4.65
2023-04-19T07:48:00.914Z,4.15
2023-04-19T07:50:29.001Z,4.13
2023-04-19T07:52:56.905Z,3.80
2023-04-19T07:55:25.068Z,3.50
2023-04-19T07:57:52.499Z,3.47
2023-04-19T08:00:21.768Z,3.45
2023-04-19T08:02:49.812Z,3.00
2023-04-19T08:05:17.804Z,3.40
2023-04-19T08:07:45.446Z,4.20
2023-04-19T08:10:13.059Z,3.58
2023-04-19T08:12:56.996Z,3.97
2023-04-19T08:16:14.838Z,3.35
2023-04-19T08:18:16.379Z,3.47
2023-04-19T08:20:43.596Z,3.97
2023-04-19T08:23:21.537Z,3.63
2023-04-19T08:25:52.361Z,3.75
2023-04-19T08:28:19.682Z,3.25
2023-04-19T08:30:46.941Z,3.67
2023-04-19T08:33:14.118Z,4.03
2023-04-19T08:35:42.025Z,3.60
2023-04-19T08:38:10.202Z,3.60
2023-04-19T08:40:42.224Z,3.60
2023-04-19T08:43:09.515Z,5.05
2023-04-19T08:45:37.518Z,4.00
2023-04-19T08:48:06.523Z,4.18
2023-04-19T08:50:40.720Z,4.18
2023-04-19T08:53:24.992Z,4.60
2023-04-19T08:56:12.843Z,4.00
2023-04-19T09:01:30.904Z,3.92
2023-04-19T09:04:16.203Z,3.63
2023-04-19T09:06:47.944Z,3.75
2023-04-19T09:11:52.167Z,3.90
2023-04-19T09:14:21.156Z,3.67
2023-04-19T09:16:48.660Z,4.03
2023-04-19T09:19:23.928Z,3.63
2023-04-19T09:21:54.765Z,4.22
2023-04-19T09:25:14.538Z,3.15
2023-04-19T09:27:29.658Z,4.15
2023-04-19T09:30:00.358Z,3.85
2023-04-19T09:32:29.270Z,3.78
2023-04-19T09:34:59.176Z,4.03
2023-04-19T09:39:57.755Z,4.47
2023-04-19T09:42:47.353Z,3.95
2023-04-19T09:45:29.379Z,4.40
2023-04-19T09:48:10.352Z,4.70
2023-04-19T09:51:03.194Z,4.47
2023-04-19T09:53:36.917Z,3.88
2023-04-19T09:56:06.431Z,4.13
2023-04-19T09:58:49.953Z,4.35
2023-04-19T10:01:24.511Z,4.18
2023-04-19T10:08:53.563Z,3.97
2023-04-19T10:11:22.976Z,3.88
2023-04-19T10:13:55.474Z,4.60
2023-04-19T10:16:22.908Z,4.03
2023-04-19T10:18:52.478Z,4.05
2023-04-19T10:21:21.198Z,4.32
2023-04-19T10:23:48.876Z,4.50
2023-04-19T10:26:16.323Z,4.25
2023-04-19T10:28:43.546Z,3.80
2023-04-19T10:31:13.863Z,4.75
2023-04-19T10:33:42.248Z,4.63
2023-04-19T10:36:11.302Z,4.45
2023-04-19T10:38:49.673Z,3.88
2023-04-19T10:41:19.258Z,4.55
2023-04-19T10:44:07.607Z,5.53
2023-04-19T10:46:40.404Z,5.85
2023-04-19T10:49:10.105Z,5.20
2023-04-19T10:51:47.765Z,5.82
2023-04-19T10:54:32.026Z,5.88
2023-04-19T10:57:08.014Z,5.38
2023-04-19T10:59:36.922Z,5.97
2023-04-19T11:02:06.420Z,5.53
2023-04-19T11:04:58.674Z,5.45
2023-04-19T11:07:25.861Z,4.55
2023-04-19T11:09:53.139Z,4.82
2023-04-19T11:12:21.567Z,4.40
2023-04-19T11:14:57.812Z,4.50
2023-04-19T11:17:32.071Z,4.53
2023-04-19T11:20:02.923Z,4.85
2023-04-19T11:22:38.865Z,4.65
2023-04-19T11:25:21.177Z,4.47
2023-04-19T11:27:53.649Z,5.07
2023-04-19T11:30:23.099Z,4.75
2023-04-19T11:32:53.430Z,4.50
2023-04-19T11:35:23.427Z,3.90
2023-04-19T11:37:51.304Z,4.07
2023-04-19T11:40:19.940Z,4.15
2023-04-19T11:42:47.557Z,4.55
2023-04-19T11:45:39.664Z,4.22
2023-04-19T11:48:13.560Z,4.65
2023-04-19T11:50:42.984Z,4.38
2023-04-19T11:53:14.853Z,4.43
2023-04-19T11:55:58.059Z,3.80
2023-04-19T11:58:32.245Z,4.53
2023-04-19T12:01:13.651Z,5.07
2023-04-19T12:03:45.512Z,4.60
2023-04-19T12:06:16.198Z,4.50
2023-04-19T12:08:45.638Z,4.07
2023-04-19T12:11:13.204Z,4.38
2023-04-19T12:13:41.093Z,6.13
2023-04-19T12:16:09.021Z,10.30
2023-04-19T12:18:50.711Z,11.48
2023-04-19T12:21:31.284Z,10.43
2023-04-19T12:24:00.465Z,7.47
2023-04-19T12:26:29.133Z,7.10
2023-04-19T12:28:57.271Z,6.07
2023-04-19T12:31:24.784Z,6.57
2023-04-19T12:33:52.088Z,5.90
2023-04-19T12:36:19.513Z,6.35
2023-04-19T12:38:47.119Z,6.55
2023-04-19T12:41:14.284Z,6.13
2023-04-19T12:43:41.450Z,6.07
2023-04-19T12:46:08.644Z,6.38
2023-04-19T12:48:36.148Z,6.07
2023-04-19T12:51:04.526Z,6.30
2023-04-19T12:53:31.694Z,6.32
2023-04-19T12:55:58.867Z,6.40
2023-04-19T12:58:28.307Z,6.63
2023-04-19T13:00:55.566Z,7.30
2023-04-19T13:03:23.672Z,6.07
2023-04-19T13:05:51.277Z,6.53
2023-04-19T13:08:28.185Z,7.13
2023-04-19T13:11:01.094Z,6.63
2023-04-19T13:13:29.889Z,6.97
2023-04-19T13:15:57.106Z,6.47
2023-04-19T13:18:24.742Z,5.90
2023-04-19T13:20:54.041Z,5.85
2023-04-19T13:23:21.760Z,6.53
2023-04-19T13:25:48.900Z,6.30
2023-04-19T13:28:16.032Z,6.63
2023-04-19T13:30:43.164Z,6.50
2023-04-19T13:33:10.420Z,5.40
2023-04-19T13:35:44.210Z,5.28
2023-04-19T13:38:11.398Z,5.50
2023-04-19T13:40:38.609Z,5.55
2023-04-19T13:43:05.744Z,4.93
2023-04-19T13:45:32.926Z,4.65
2023-04-19T13:48:00.141Z,5.05
2023-04-19T13:50:27.608Z,5.50
2023-04-19T13:52:54.720Z,5.35
2023-04-19T13:55:21.958Z,5.03
2023-04-19T13:57:49.294Z,4.90
2023-04-19T14:00:16.852Z,5.47
2023-04-19T14:02:45.222Z,5.15
2023-04-19T14:05:12.598Z,5.70
2023-04-19T14:07:40.796Z,5.15
2023-04-19T14:10:10.094Z,5.43
2023-04-19T14:12:37.322Z,5.07
2023-04-19T14:15:04.887Z,4.63
2023-04-19T14:17:32.261Z,4.97
2023-04-19T14:19:59.348Z,4.63
2023-04-19T14:22:26.770Z,5.32
2023-04-19T14:24:53.986Z,5.18
2023-04-19T14:27:21.180Z,6.25
2023-04-19T14:29:48.385Z,5.60
2023-04-19T14:32:25.865Z,5.10
2023-04-19T14:34:58.743Z,4.68
2023-04-19T14:37:26.166Z,6.15
2023-04-19T14:39:53.617Z,5.13
2023-04-19T14:42:22.800Z,5.40
2023-04-19T14:44:53.368Z,4.90
2023-04-19T14:49:48.619Z,5.35
2023-04-19T14:52:16.522Z,5.10
2023-04-19T14:54:43.696Z,5.75
2023-04-19T14:57:10.915Z,5.13
2023-04-19T14:59:38.159Z,5.35
2023-04-19T15:02:05.953Z,5.07
2023-04-19T15:04:39.930Z,5.53
2023-04-19T15:07:08.254Z,5.45
2023-04-19T15:09:35.699Z,5.40
2023-04-19T15:12:02.877Z,6.22
2023-04-19T15:14:30.206Z,6.53
2023-04-19T15:16:57.503Z,5.85
2023-04-19T15:19:24.769Z,5.40
2023-04-19T15:21:51.899Z,5.28
2023-04-19T15:24:19.169Z,5.35
2023-04-19T15:26:46.293Z,5.78
2023-04-19T15:29:13.683Z,5.50
2023-04-19T15:31:40.920Z,5.40
2023-04-19T15:34:08.057Z,5.72
2023-04-19T15:36:35.168Z,5.13
2023-04-19T15:39:02.354Z,5.20
2023-04-19T15:41:29.439Z,5.03
2023-04-19T15:43:57.836Z,5.75
2023-04-19T15:46:25.119Z,5.45
2023-04-19T15:48:52.300Z,4.78
2023-04-19T15:51:19.485Z,5.32
2023-04-19T15:53:46.601Z,5.50
2023-04-19T15:56:13.688Z,5.55
2023-04-19T15:58:40.808Z,4.88
2023-04-19T16:01:15.755Z,5.50
2023-04-19T16:03:45.188Z,5.13
2023-04-19T16:06:12.480Z,5.82
2023-04-19T16:08:39.789Z,5.32
2023-04-19T16:11:06.895Z,5.40
2023-04-19T16:13:34.032Z,5.85
2023-04-19T16:16:01.840Z,5.90
2023-04-19T16:18:29.076Z,5.85
2023-04-19T16:20:56.213Z,4.97
2023-04-19T16:23:25.137Z,5.68
2023-04-19T16:25:52.992Z,5.55
2023-04-19T16:28:21.369Z,5.15
2023-04-19T16:30:48.631Z,5.13
2023-04-19T16:33:16.063Z,4.70
2023-04-19T16:35:43.356Z,5.57
2023-04-19T16:38:10.741Z,5.15
2023-04-19T16:40:37.929Z,4.85
2023-04-19T16:43:06.486Z,4.95
2023-04-19T16:45:34.025Z,5.38
2023-04-19T16:48:01.375Z,4.93
2023-04-19T16:50:28.517Z,5.15
2023-04-19T16:52:55.740Z,5.10
2023-04-19T16:55:22.989Z,4.65
2023-04-19T16:57:51.297Z,4.35
2023-04-19T17:00:18.901Z,4.97
2023-04-19T17:02:46.195Z,4.60
2023-04-19T17:05:14.614Z,4.85
2023-04-19T17:07:41.970Z,4.10
2023-04-19T17:10:09.845Z,4.32
2023-04-19T17:12:37.110Z,4.57
2023-04-19T17:15:04.692Z,4.88
2023-04-19T17:17:31.938Z,4.63
2023-04-19T17:19:59.255Z,5.25
2023-04-19T17:22:26.415Z,5.20
2023-04-19T17:24:55.989Z,4.57
2023-04-19T17:27:23.235Z,4.45
2023-04-19T17:29:50.481Z,4.75
2023-04-19T17:32:17.681Z,4.90
2023-04-19T17:34:44.942Z,4.13
2023-04-19T17:37:12.115Z,4.38
2023-04-19T17:39:39.232Z,4.18
2023-04-19T17:42:06.569Z,4.10
2023-04-19T17:44:33.737Z,4.18
2023-04-19T17:47:01.075Z,4.40
2023-04-19T17:49:29.319Z,4.13
2023-04-19T17:51:56.895Z,3.92
2023-04-19T17:54:24.037Z,3.83
2023-04-19T17:56:52.717Z,3.92
2023-04-19T17:59:19.958Z,4.43
2023-04-19T18:01:47.225Z,4.13
2023-04-19T18:04:17.973Z,4.10
2023-04-19T18:06:46.040Z,3.70
2023-04-19T18:09:13.439Z,4.15
2023-04-19T18:11:41.153Z,3.92
2023-04-19T18:14:08.511Z,3.97
2023-04-19T18:16:35.769Z,4.20
2023-04-19T18:19:03.064Z,4.18
2023-04-19T18:21:30.282Z,3.75
2023-04-19T18:23:57.400Z,3.78
2023-04-19T18:26:24.541Z,3.67
2023-04-19T18:28:51.967Z,3.55
2023-04-19T18:31:19.140Z,3.78
2023-04-19T18:33:46.269Z,4.03
2023-04-19T18:36:13.358Z,3.65
2023-04-19T18:38:40.507Z,3.30
2023-04-19T18:41:08.041Z,3.90
2023-04-19T18:43:35.139Z,3.17
2023-04-19T18:46:02.565Z,3.70
2023-04-19T18:48:30.105Z,3.60
2023-04-19T18:50:57.967Z,3.88
2023-04-19T18:53:31.857Z,3.72
2023-04-19T18:55:59.199Z,3.60
2023-04-19T18:58:28.607Z,3.67
2023-04-19T19:00:57.048Z,3.33
2023-04-19T19:05:55.309Z,3.55
2023-04-19T19:08:22.928Z,3.78
2023-04-19T19:11:13.755Z,3.53
2023-04-19T19:13:37.348Z,3.15
2023-04-19T19:16:05.900Z,3.72
2023-04-19T19:18:33.154Z,3.47
2023-04-19T19:21:00.539Z,3.63
2023-04-19T19:23:35.899Z,3.47
2023-04-19T19:26:06.604Z,3.40
2023-04-19T19:28:34.491Z,3.95
2023-04-19T19:31:01.861Z,3.47
2023-04-19T19:33:32.813Z,3.60
2023-04-19T19:36:00.145Z,3.45
2023-04-19T19:38:27.401Z,3.15
2023-04-19T19:41:30.906Z,3.05
2023-04-19T19:43:41.919Z,3.00
2023-04-19T19:46:10.727Z,3.38
2023-04-19T19:48:42.356Z,3.05
2023-04-19T19:51:36.195Z,3.15
2023-04-19T19:53:57.409Z,2.95
2023-04-19T19:56:25.376Z,2.97
2023-04-19T19:58:52.552Z,3.85
2023-04-19T20:01:22.799Z,3.08
2023-04-19T20:03:50.844Z,3.38
2023-04-19T20:07:07.785Z,3.42
2023-04-19T20:09:05.335Z,2.97
2023-04-19T20:11:32.528Z,3.38
2023-04-19T20:13:59.613Z,3.25
2023-04-19T20:16:27.408Z,3.70
2023-04-19T20:18:54.762Z,3.15
2023-04-19T20:21:21.905Z,3.28
2023-04-19T20:23:48.993Z,3.40
2023-04-19T20:26:16.080Z,3.15
2023-04-19T20:28:43.219Z,3.20
2023-04-19T20:31:10.761Z,2.90
2023-04-19T20:33:37.920Z,3.30
2023-04-19T20:36:05.078Z,3.10
2023-04-19T20:38:32.730Z,2.70
2023-04-19T20:40:59.789Z,2.92
2023-04-19T20:43:27.090Z,3.10
2023-04-19T20:45:54.260Z,3.00
2023-04-19T20:48:21.552Z,3.42
2023-04-19T20:50:48.741Z,3.08
2023-04-19T20:53:15.850Z,2.95
2023-04-19T20:55:43.782Z,2.88
2023-04-19T20:58:11.272Z,2.63
2023-04-19T21:00:38.407Z,2.78
2023-04-19T21:03:06.611Z,3.00
2023-04-19T21:05:35.258Z,3.75
2023-04-19T21:08:02.740Z,2.90
2023-04-19T21:10:30.019Z,2.72
2023-04-19T21:12:57.205Z,3.20
2023-04-19T21:15:24.372Z,2.67
2023-04-19T21:17:51.602Z,2.78
2023-04-19T21:20:18.897Z,2.70
2023-04-19T21:22:47.300Z,2.75
2023-04-19T21:25:14.627Z,2.70
2023-04-19T21:27:42.473Z,3.40
2023-04-19T21:30:10.665Z,2.35
2023-04-19T21:32:37.842Z,2.92
2023-04-19T21:35:05.437Z,2.35
2023-04-19T21:37:32.551Z,2.47
2023-04-19T21:39:59.730Z,2.60
2023-04-19T21:42:26.847Z,2.63
2023-04-19T21:44:53.973Z,2.65
2023-04-19T21:47:21.461Z,2.58
2023-04-19T21:49:48.586Z,2.88
2023-04-19T21:52:15.675Z,2.40
2023-04-19T21:54:42.792Z,2.50
2023-04-19T21:57:11.180Z,2.60
2023-04-19T21:59:38.560Z,2.53
2023-04-19T22:02:05.862Z,2.67
2023-04-19T22:04:33.171Z,2.58
2023-04-19T22:07:03.336Z,2.60
2023-04-19T22:09:31.147Z,2.70
2023-04-19T22:11:58.369Z,2.63
2023-04-19T22:14:25.467Z,2.90
2023-04-19T22:16:54.074Z,2.40
2023-04-19T22:19:21.370Z,2.53
2023-04-19T22:21:48.558Z,2.58
2023-04-19T22:24:15.974Z,2.55
2023-04-19T22:26:43.501Z,2.20
2023-04-19T22:29:10.694Z,2.80
2023-04-19T22:31:37.894Z,2.63
2023-04-19T22:34:05.106Z,2.83
2023-04-19T22:36:32.297Z,2.55
2023-04-19T22:38:59.549Z,2.25
2023-04-19T22:41:26.704Z,2.90
2023-04-19T22:43:54.359Z,2.70
2023-04-19T22:46:21.616Z,2.78
2023-04-19T22:48:50.054Z,2.30
2023-04-19T22:51:18.393Z,2.45
2023-04-19T22:53:45.518Z,2.45
2023-04-19T22:56:12.692Z,2.58
2023-04-19T22:58:39.803Z,2.30
2023-04-19T23:01:07.012Z,2.72
2023-04-19T23:03:34.410Z,2.42
2023-04-19T23:06:03.488Z,2.20
2023-04-19T23:08:31.094Z,2.47
2023-04-19T23:10:58.204Z,2.58
2023-04-19T23:13:25.288Z,2.53
2023-04-19T23:15:52.992Z,2.55
2023-04-19T23:18:21.439Z,2.60
2023-04-19T23:20:48.601Z,2.85
2023-04-19T23:23:15.791Z,2.40
2023-04-19T23:25:42.971Z,2.25
2023-04-19T23:28:12.479Z,1.88
2023-04-19T23:30:39.998Z,2.63
2023-04-19T23:33:07.198Z,2.45
2023-04-19T23:35:34.467Z,2.47
2023-04-19T23:38:01.582Z,2.45
2023-04-19T23:40:28.784Z,2.45
2023-04-19T23:42:55.959Z,2.45
2023-04-19T23:45:23.134Z,2.58
2023-04-19T23:47:50.947Z,2.40
2023-04-19T23:50:18.131Z,2.53
2023-04-19T23:52:45.265Z,2.35
2023-04-19T23:55:12.835Z,2.40
2023-04-19T23:57:40.093Z,2.10
